GPH weather

Midwest National Air Center Airport
Mosby, Missouri, United States

Public forecast

Using degrees Fahrenheit for public forecast. Weather courtesy of forecast.io.

METAR (pilot weather report)

Retrieved 2019/08/25 21:35 UTC (0 seconds ago):

KGPH 252135Z AUTO 00000KT 7SM -RA BKN008 OVC014 20/19 A2981 RMK AO2 LTG DSNT E AND SE

TAF (pilot weather forecast)

Closest forecast is Charles B. Wheeler Downtown Airport, 18.2 nm (33.7 km) SW. Retrieved 2019/08/25 18:36 UTC (3 hours ago):

TAF KMKC 251734Z 2518/2618 08010KT 6SM BR VCSH OVC009 TEMPO 2518/2521 -SHRA BKN006 FM252200 09007KT 5SM BR OVC012 FM260900 14005KT 3SM -DZ BR OVC009 FM261500 17011KT P6SM OVC020